Time;durP1;ratioP1;P1;durP2;ratioP2;P2;SDS_P1;SDS_P2;PMS_P1;PMS_P2;Temp;Humidity;BMP_temperature;BMP_pressure;BME280_temperature;BME280_humidity;BME280_pressure;Samples;Min_cycle;Max_cycle;Signal;HPM_P1;HPM_P2
2021/12/23 00:02:19;;;;;;;141.40;77.97;;;;;;;;;;5093751;28;20397;-67
2021/12/23 00:04:46;;;;;;;159.25;92.90;;;;;;;;;;5094061;28;20028;-67
2021/12/23 00:07:12;;;;;;;180.07;107.68;;;;;;;;;;5074936;28;20020;-67
2021/12/23 00:12:22;;;;;;;187.45;107.85;;;;;;;;;;5073962;28;20076;-67
2021/12/23 00:14:51;;;;;;;201.60;115.78;;;51.50;1996.80;;;;;;5076919;28;20119;-68
2021/12/23 00:17:51;;;;;;;209.60;120.43;;;;;;;;;;5093400;28;20035;-67
2021/12/23 00:25:22;;;;;;;196.15;113.28;;;;;;;;;;5093555;28;20050;-66
2021/12/23 00:27:49;;;;;;;203.93;117.97;;;;;;;;;;5093807;28;20020;-66
2021/12/23 00:30:14;;;;;;;193.90;111.55;;;25.90;2124.80;;;;;;5093620;28;20028;-66
2021/12/23 00:32:40;;;;;;;145.48;85.00;;;25.60;2201.60;;;;;;5093635;28;20101;-66
2021/12/23 00:35:07;;;;;;;133.27;78.57;;;;;;;;;;5092433;28;20027;-63
2021/12/23 00:37:41;;;;;;;120.53;69.85;;;;;;;;;;5093783;28;20473;-68
2021/12/23 00:40:09;;;;;;;118.28;69.47;;;;;;;;;;5093326;28;20505;-65
2021/12/23 00:42:36;;;;;;;104.90;58.83;;;;;;;;;;5093489;28;20454;-66
2021/12/23 00:45:03;;;;;;;103.35;60.00;;;;;;;;;;5092460;28;20052;-65
2021/12/23 00:47:30;;;;;;;90.90;53.08;;;;;;;;;;5092928;28;20111;-64
2021/12/23 00:49:56;;;;;;;93.18;54.63;;;;;;;;;;5092852;28;20020;-64
2021/12/23 00:52:29;;;;;;;87.45;50.55;;;;;;;;;;5092786;28;20020;-64
2021/12/23 00:54:55;;;;;;;88.35;50.40;;;;;;;;;;5092890;28;20032;-65
2021/12/23 00:57:27;;;;;;;92.60;51.85;;;;;;;;;;5092815;28;20533;-65
2021/12/23 00:59:54;;;;;;;91.97;52.00;;;26.20;2048.00;;;;;;5092492;28;20127;-64
2021/12/23 01:02:27;;;;;;;97.15;52.08;;;26.20;2201.60;;;;;;5092738;28;20032;-65
2021/12/23 01:04:53;;;;;;;90.22;51.03;;;26.40;1996.80;;;;;;5092937;28;20440;-64
2021/12/23 01:07:19;;;;;;;85.65;51.15;;;26.20;2048.00;;;;;;5073485;28;20029;-65
2021/12/23 01:09:46;;;;;;;92.18;53.45;;;26.30;2022.40;;;;;;5072488;28;20095;-64
2021/12/23 01:12:14;;;;;;;86.60;50.15;;;26.40;1996.80;;;;;;5072261;28;20029;-65
2021/12/23 01:14:55;;;;;;;92.63;51.22;;;26.20;2022.40;;;;;;5072183;28;20470;-64
2021/12/23 01:17:30;;;;;;;100.97;58.33;;;26.20;2022.40;;;;;;5072475;28;20032;-63
2021/12/23 01:19:57;;;;;;;105.20;61.83;;;26.30;2022.40;;;;;;5072050;28;20025;-64
2021/12/23 01:22:23;;;;;;;126.78;75.50;;;26.30;2022.40;;;;;;5072232;28;20021;-64
2021/12/23 01:24:50;;;;;;;128.18;74.05;;;26.10;2022.40;;;;;;5071933;28;20045;-65
2021/12/23 01:27:16;;;;;;;124.90;73.35;;;25.90;2073.60;;;;;;5072120;28;20051;-66
2021/12/23 01:29:42;;;;;;;141.65;84.28;;;25.90;2073.60;;;;;;5072402;28;20020;-65
2021/12/23 01:32:08;;;;;;;141.70;85.25;;;26.10;2073.60;;;;;;5072176;28;20569;-66
2021/12/23 01:34:35;;;;;;;160.65;96.55;;;26.20;1996.80;;;;;;5072157;28;20466;-66
2021/12/23 01:37:03;;;;;;;183.68;105.57;;;26.30;1996.80;;;;;;5085594;28;20031;-67
2021/12/23 01:39:28;;;;;;;171.30;96.50;;;26.10;2022.40;;;;;;5092488;28;20474;-66
2021/12/23 01:41:54;;;;;;;143.43;88.20;;;26.20;1996.80;;;;;;5092169;28;20032;-68
2021/12/23 01:44:20;;;;;;;135.82;80.20;;;26.20;1996.80;;;;;;5092256;28;20032;-66
2021/12/23 01:46:46;;;;;;;86.53;51.55;;;26.30;1971.20;;;;;;5092216;28;20097;-68
2021/12/23 01:49:12;;;;;;;78.50;48.88;;;25.80;2022.40;;;;;;5092131;28;20024;-67
2021/12/23 01:51:38;;;;;;;72.32;43.05;;;0.90;2073.60;;;;;;5092067;28;20082;-65
2021/12/23 01:54:04;;;;;;;71.25;43.30;;;;;;;;;;5092036;28;20074;-66
2021/12/23 01:56:30;;;;;;;74.00;45.90;;;;;;;;;;5093820;28;20047;-66
2021/12/23 01:58:57;;;;;;;70.60;43.63;;;;;;;;;;5096256;28;20032;-66
2021/12/23 02:01:23;;;;;;;76.47;44.58;;;;;;;;;;5096240;28;20028;-66
2021/12/23 02:03:49;;;;;;;73.88;45.28;;;;;;;;;;5096091;28;20031;-66
2021/12/23 02:06:15;;;;;;;76.82;48.67;;;;;;;;;;5095654;28;20024;-64
2021/12/23 02:08:41;;;;;;;75.05;43.97;;;;;;;;;;5095965;28;20021;-64
2021/12/23 02:11:08;;;;;;;66.70;41.35;;;;;;;;;;5095768;28;20098;-64
2021/12/23 02:13:35;;;;;;;68.90;41.80;;;;;;;;;;5095877;28;20036;-66
2021/12/23 02:16:01;;;;;;;78.90;47.10;;;;;;;;;;5095855;28;20020;-64
2021/12/23 02:18:28;;;;;;;76.32;45.55;;;;;;;;;;5095809;28;20028;-65
2021/12/23 02:20:54;;;;;;;78.43;48.92;;;;;;;;;;5095713;28;20036;-64
2021/12/23 02:23:21;;;;;;;77.05;46.92;;;;;;;;;;5095498;28;20077;-64
2021/12/23 02:25:47;;;;;;;86.97;50.17;;;25.80;2022.40;;;;;;5095467;28;20113;-64
2021/12/23 02:28:17;;;;;;;79.53;46.58;;;25.80;2048.00;;;;;;5095602;28;20028;-65
2021/12/23 02:30:44;;;;;;;74.88;46.85;;;25.80;2048.00;;;;;;5095440;28;20056;-65
2021/12/23 02:33:10;;;;;;;81.35;50.28;;;25.70;2022.40;;;;;;5095684;28;20066;-63
2021/12/23 02:35:37;;;;;;;82.32;47.08;;;25.80;1996.80;;;;;;5095613;28;20104;-64
2021/12/23 02:38:04;;;;;;;81.78;46.50;;;25.80;1996.80;;;;;;5095437;28;20652;-64
2021/12/23 02:40:30;;;;;;;95.03;55.78;;;25.80;1996.80;;;;;;5095189;28;20052;-64
2021/12/23 02:42:58;;;;;;;114.63;66.20;;;25.90;1971.20;;;;;;5095261;28;20059;-63
2021/12/23 02:45:24;;;;;;;103.10;61.13;;;25.90;1971.20;;;;;;5095352;28;20119;-64
2021/12/23 02:47:50;;;;;;;92.07;53.90;;;;;;;;;;5095231;28;20056;-65
2021/12/23 02:50:16;;;;;;;92.53;55.17;;;;;;;;;;5095259;28;20020;-68
2021/12/23 02:52:42;;;;;;;85.47;51.28;;;;;;;;;;5095155;28;20478;-68
2021/12/23 02:55:08;;;;;;;75.05;42.88;;;;;;;;;;5095120;28;20040;-67
2021/12/23 02:57:34;;;;;;;77.50;47.10;;;;;;;;;;5095236;28;20390;-67
2021/12/23 03:00:01;;;;;;;73.00;43.70;;;;;;;;;;5094862;28;20032;-67
2021/12/23 03:02:27;;;;;;;103.43;61.30;;;;;;;;;;5095024;28;20020;-65
2021/12/23 03:04:56;;;;;;;98.88;58.38;;;;;;;;;;5094964;28;20093;-67
2021/12/23 03:07:22;;;;;;;125.30;69.35;;;;;;;;;;5094185;28;20024;-68
2021/12/23 03:09:48;;;;;;;127.32;73.00;;;;;;;;;;5094822;28;20024;-67
2021/12/23 03:12:14;;;;;;;90.15;54.50;;;;;;;;;;5094644;28;20073;-68
2021/12/23 03:14:40;;;;;;;85.85;48.08;;;0.90;1996.80;;;;;;5094815;28;20024;-64
2021/12/23 03:17:07;;;;;;;82.20;45.83;;;;;;;;;;5075761;28;20063;-68
2021/12/23 03:19:33;;;;;;;78.88;47.10;;;;;;;;;;5094728;28;20547;-66
2021/12/23 03:21:59;;;;;;;78.65;48.38;;;;;;;;;;5094462;28;20039;-68
2021/12/23 03:24:25;;;;;;;79.10;46.00;;;;;;;;;;5094225;28;20096;-68
2021/12/23 03:26:51;;;;;;;70.85;39.80;;;;;;;;;;5094473;28;20034;-68
2021/12/23 03:29:20;;;;;;;67.82;39.97;;;;;;;;;;5094656;28;20027;-67
2021/12/23 03:31:46;;;;;;;70.97;39.42;;;;;;;;;;5094652;28;20020;-66
2021/12/23 03:34:12;;;;;;;66.80;41.83;;;0.60;2048.00;;;;;;5094846;28;20383;-70
2021/12/23 03:36:38;;;;;;;73.85;41.53;;;0.60;2201.60;;;;;;5081573;28;20090;-69
2021/12/23 03:39:05;;;;;;;69.05;42.05;;;0.80;2022.40;;;;;;5056054;28;20083;-71
2021/12/23 03:41:32;;;;;;;68.95;43.75;;;;;;;;;;5073786;28;20037;-67
2021/12/23 03:43:57;;;;;;;64.18;38.88;;;0.70;2022.40;;;;;;5074031;28;20459;-67
2021/12/23 03:46:23;;;;;;;60.92;37.22;;;0.90;1996.80;;;;;;5073891;28;20035;-69
2021/12/23 03:48:49;;;;;;;71.10;43.17;;;0.80;2022.40;;;;;;5073802;28;20032;-66
2021/12/23 03:51:15;;;;;;;64.90;39.35;;;25.60;2022.40;;;;;;5073887;28;20424;-63
2021/12/23 03:53:41;;;;;;;77.53;44.75;;;25.60;1971.20;;;;;;5055896;28;20056;-64
2021/12/23 03:56:10;;;;;;;78.85;46.30;;;25.60;1996.80;;;;;;5073517;28;20052;-65
2021/12/23 03:58:36;;;;;;;88.32;50.63;;;0.70;1996.80;;;;;;5073714;28;20027;-66
2021/12/23 04:01:03;;;;;;;98.80;58.28;;;0.30;2073.60;;;;;;5081716;28;20028;-65
2021/12/23 04:03:31;;;;;;;106.22;62.22;;;0.10;2073.60;;;;;;5093821;28;20044;-64
2021/12/23 04:05:57;;;;;;;92.45;54.60;;;;;;;;;;5086779;28;20103;-66
2021/12/23 04:08:23;;;;;;;77.13;45.65;;;13.00;2150.40;;;;;;5073445;28;20552;-68
2021/12/23 04:10:49;;;;;;;62.47;37.28;;;13.00;2099.20;;;;;;5073255;28;20025;-67
2021/12/23 04:13:14;;;;;;;61.78;35.50;;;12.90;2124.80;;;;;;5073432;28;20024;-67
2021/12/23 04:15:40;;;;;;;61.45;37.75;;;0.20;2073.60;;;;;;5060445;28;20482;-65
2021/12/23 04:18:06;;;;;;;55.83;34.20;;;0.40;2048.00;;;;;;5092841;28;20020;-66
2021/12/23 04:20:35;;;;;;;58.67;37.53;;;0.50;2022.40;;;;;;5093144;28;20172;-66
2021/12/23 04:23:03;;;;;;;75.10;45.60;;;0.40;2022.40;;;;;;5093198;28;20024;-66
2021/12/23 04:25:30;;;;;;;76.15;46.03;;;0.10;2048.00;;;;;;5093281;28;20044;-66
2021/12/23 04:28:00;;;;;;;79.57;47.05;;;13.10;2124.80;;;;;;5093509;28;20031;-68
2021/12/23 04:30:32;;;;;;;84.60;50.28;;;13.00;2124.80;;;;;;5093669;28;20024;-68
2021/12/23 04:32:58;;;;;;;;;;;12.90;2099.20;;;;;;5093916;28;20020;-67
2021/12/23 04:35:23;;;;;;;85.35;48.47;;;0.10;2073.60;;;;;;5091257;28;20698;-65
2021/12/23 04:37:49;;;;;;;75.10;45.53;;;0.20;2073.60;;;;;;5084500;28;20381;-66
2021/12/23 04:40:15;;;;;;;78.55;43.08;;;0.40;2048.00;;;;;;5093002;28;20500;-63
2021/12/23 04:42:44;;;;;;;71.28;39.95;;;0.40;2048.00;;;;;;5092385;28;20028;-64
2021/12/23 04:45:10;;;;;;;66.45;39.50;;;0.50;2022.40;;;;;;5091708;28;20073;-63
2021/12/23 04:47:37;;;;;;;59.58;36.67;;;0.40;1996.80;;;;;;5093374;28;20067;-66
2021/12/23 04:50:05;;;;;;;55.67;34.75;;;0.60;1996.80;;;;;;5093015;28;20023;-65
2021/12/23 04:52:30;;;;;;;63.00;36.28;;;0.10;2022.40;;;;;;5092695;28;20016;-65
2021/12/23 04:54:56;;;;;;;55.83;35.03;;;0.10;2048.00;;;;;;5092826;28;20111;-66
2021/12/23 04:57:22;;;;;;;61.10;35.30;;;0.30;2022.40;;;;;;5092148;28;20024;-65
2021/12/23 04:59:48;;;;;;;62.08;37.40;;;0.40;2022.40;;;;;;5092557;28;20036;-63
2021/12/23 05:02:13;;;;;;;65.55;38.10;;;12.90;2073.60;;;;;;5092779;28;20046;-64
2021/12/23 05:04:41;;;;;;;78.05;42.10;;;0.00;2048.00;;;;;;5092765;28;20032;-64
2021/12/23 05:07:07;;;;;;;89.07;45.47;;;;;;;;;;5084470;28;20373;-64
2021/12/23 05:09:34;;;;;;;80.97;41.33;;;;;;;;;;5092369;28;20062;-68
2021/12/23 05:12:00;;;;;;;84.43;42.95;;;;;;;;;;5092334;28;20055;-66
2021/12/23 05:14:26;;;;;;;84.22;43.42;;;;;;;;;;5091922;28;20024;-63
2021/12/23 05:16:52;;;;;;;80.00;42.95;;;;;;;;;;5092112;28;20081;-67
2021/12/23 05:19:18;;;;;;;82.70;44.15;;;;;;;;;;5074403;28;20024;-65
2021/12/23 05:21:44;;;;;;;90.80;47.90;;;;;;;;;;5092433;28;20110;-66
2021/12/23 05:24:10;;;;;;;105.80;53.03;;;;;;;;;;5091552;28;20043;-66
2021/12/23 05:26:36;;;;;;;111.78;54.33;;;0.10;1996.80;;;;;;5092546;28;20043;-68
2021/12/23 05:29:02;;;;;;;122.05;57.83;;;0.10;2201.60;;;;;;5074082;28;20024;-67
2021/12/23 05:31:28;;;;;;;120.43;59.38;;;0.10;1996.80;;;;;;5092212;28;20608;-67
2021/12/23 05:33:54;;;;;;;111.35;56.38;;;0.00;2022.40;;;;;;5092290;28;20103;-67
2021/12/23 05:36:20;;;;;;;106.68;56.47;;;13.00;2048.00;;;;;;5090190;28;20085;-67
2021/12/23 05:38:45;;;;;;;98.70;52.22;;;13.20;2073.60;;;;;;5092124;28;20138;-67
2021/12/23 05:41:11;;;;;;;85.72;47.08;;;13.10;2073.60;;;;;;5092300;28;20051;-67
2021/12/23 05:43:37;;;;;;;136.43;71.97;;;13.20;2073.60;;;;;;5092400;28;20028;-67
2021/12/23 05:46:03;;;;;;;117.55;65.03;;;;;;;;;;5092216;28;20076;-66
2021/12/23 05:48:35;;;;;;;107.15;55.50;;;;;;;;;;5092051;28;20047;-66
2021/12/23 05:51:01;;;;;;;92.32;50.17;;;;;;;;;;5092364;28;20028;-67
2021/12/23 05:53:27;;;;;;;101.00;53.20;;;;;;;;;;5092209;28;20024;-67
2021/12/23 05:55:53;;;;;;;90.72;47.78;;;;;;;;;;5091839;28;20485;-66
2021/12/23 05:58:19;;;;;;;116.03;63.13;;;;;;;;;;5092132;28;20543;-67
2021/12/23 06:00:45;;;;;;;98.32;54.03;;;;;;;;;;5091999;28;20071;-66
2021/12/23 06:03:11;;;;;;;118.25;65.15;;;;;;;;;;5091996;28;20029;-67
2021/12/23 06:05:37;;;;;;;88.15;51.78;;;;;;;;;;5092075;28;20416;-67
2021/12/23 06:08:03;;;;;;;85.18;45.95;;;;;;;;;;5092000;28;20028;-65
2021/12/23 06:10:29;;;;;;;96.47;52.80;;;;;;;;;;5091863;28;20028;-66
2021/12/23 06:12:55;;;;;;;94.97;50.42;;;;;;;;;;5091796;28;20020;-67
2021/12/23 06:15:21;;;;;;;98.05;53.92;;;;;;;;;;5092134;28;20485;-64
2021/12/23 06:17:48;;;;;;;105.90;58.85;;;;;;;;;;5091880;28;20394;-67
2021/12/23 06:20:14;;;;;;;105.10;57.33;;;13.00;2048.00;;;;;;5091706;28;20047;-67
2021/12/23 06:22:40;;;;;;;111.75;65.75;;;12.90;2048.00;;;;;;5091555;28;20024;-67
2021/12/23 06:25:08;;;;;;;117.35;68.00;;;13.10;2048.00;;;;;;5091564;28;20076;-65
2021/12/23 06:27:34;;;;;;;135.77;73.00;;;13.40;2099.20;;;;;;5092048;28;20023;-67
2021/12/23 06:30:00;;;;;;;144.13;83.18;;;13.30;2099.20;;;;;;5091964;28;20103;-66
2021/12/23 06:32:26;;;;;;;149.55;86.57;;;;;;;;;;5091843;28;20058;-64
2021/12/23 06:34:53;;;;;;;142.90;83.22;;;;;;;;;;5091968;28;20024;-66
2021/12/23 06:37:19;;;;;;;135.85;78.82;;;;;;;;;;5091667;28;20024;-64
2021/12/23 06:39:46;;;;;;;118.15;66.93;;;;;;;;;;5091880;28;20043;-66
2021/12/23 06:42:13;;;;;;;111.38;61.85;;;;;;;;;;5092879;28;20111;-66
2021/12/23 06:44:39;;;;;;;121.75;64.55;;;;;;;;;;5077341;28;20020;-66
2021/12/23 06:47:05;;;;;;;132.05;67.93;;;;;;;;;;5095462;28;20036;-66
2021/12/23 06:49:33;;;;;;;143.40;75.75;;;;;;;;;;5095438;28;20111;-65
2021/12/23 06:52:00;;;;;;;171.93;93.68;;;;;;;;;;5077673;28;20024;-66
2021/12/23 06:54:26;;;;;;;222.02;121.50;;;;;;;;;;5095596;28;20029;-66
2021/12/23 06:56:52;;;;;;;143.68;81.93;;;;;;;;;;5095266;28;20039;-61
2021/12/23 06:59:18;;;;;;;109.70;59.88;;;;;;;;;;5095438;28;20020;-68
2021/12/23 07:01:48;;;;;;;119.07;63.78;;;;;;;;;;5095396;28;20024;-67
2021/12/23 07:04:17;;;;;;;106.65;54.97;;;;;;;;;;5095218;28;20172;-68
2021/12/23 07:06:52;;;;;;;128.18;65.93;;;;;;;;;;5095010;28;20023;-67
2021/12/23 07:09:18;;;;;;;106.68;58.53;;;;;;;;;;5076771;28;20035;-67
2021/12/23 07:11:46;;;;;;;115.22;65.07;;;;;;;;;;5094529;28;20024;-67
2021/12/23 07:14:15;;;;;;;111.88;63.17;;;;;;;;;;5076113;28;20683;-66
2021/12/23 07:16:42;;;;;;;97.03;56.78;;;;;;;;;;5094562;28;20028;-64
2021/12/23 07:19:08;;;;;;;113.97;65.28;;;;;;;;;;5094518;28;20107;-67
2021/12/23 07:21:34;;;;;;;99.95;56.78;;;;;;;;;;5094365;28;20032;-67
2021/12/23 07:24:00;;;;;;;101.60;59.42;;;;;;;;;;5094466;28;20085;-65
2021/12/23 07:26:27;;;;;;;124.53;72.78;;;;;;;;;;5094338;28;20032;-67
2021/12/23 07:28:53;;;;;;;123.35;72.50;;;;;;;;;;5094525;28;20020;-67
2021/12/23 07:31:19;;;;;;;142.60;78.78;;;;;;;;;;5094460;28;20407;-67
2021/12/23 07:33:45;;;;;;;123.00;69.15;;;;;;;;;;5094308;28;20024;-67
2021/12/23 07:36:12;;;;;;;134.40;80.03;;;;;;;;;;5094035;28;20077;-67
2021/12/23 07:38:38;;;;;;;120.13;70.30;;;;;;;;;;5094268;28;20443;-67
2021/12/23 07:41:04;;;;;;;85.90;52.42;;;;;;;;;;5093917;28;20028;-68
2021/12/23 07:46:02;;;;;;;128.83;74.97;;;;;;;;;;5094533;28;20028;-67
2021/12/23 07:48:28;;;;;;;101.90;58.55;;;;;;;;;;5094304;28;20665;-67
2021/12/23 07:50:55;;;;;;;93.72;54.72;;;;;;;;;;5075974;28;20028;-68
2021/12/23 07:53:21;;;;;;;104.70;58.75;;;;;;;;;;5093972;28;20136;-67
2021/12/23 07:55:47;;;;;;;106.35;65.22;;;;;;;;;;5093735;28;20112;-66
2021/12/23 07:58:13;;;;;;;128.30;75.40;;;;;;;;;;5093820;28;20511;-68
2021/12/23 08:00:39;;;;;;;136.57;78.80;;;;;;;;;;5093942;28;20038;-68
2021/12/23 08:03:05;;;;;;;119.05;68.70;;;;;;;;;;5075940;28;20024;-66
2021/12/23 08:05:33;;;;;;;88.95;54.60;;;;;;;;;;5093741;28;20024;-67
2021/12/23 08:07:59;;;;;;;92.47;57.10;;;;;;;;;;5093489;28;20087;-68
2021/12/23 08:10:25;;;;;;;109.82;67.78;;;;;;;;;;5093621;28;20392;-67
2021/12/23 08:12:51;;;;;;;126.90;76.15;;;;;;;;;;5093545;28;20024;-64
2021/12/23 08:15:17;;;;;;;154.82;102.07;;;;;;;;;;5074987;28;20085;-68
2021/12/23 08:17:44;;;;;;;216.00;137.07;;;;;;;;;;5093537;28;20394;-65
2021/12/23 08:20:11;;;;;;;199.73;134.20;;;;;;;;;;5074769;28;20043;-67
2021/12/23 08:22:37;;;;;;;230.75;149.57;;;;;;;;;;5093238;28;20474;-63
2021/12/23 08:25:03;;;;;;;223.00;149.13;;;;;;;;;;5092719;28;20077;-66
2021/12/23 08:27:31;;;;;;;195.48;127.97;;;;;;;;;;5093197;28;20530;-67
2021/12/23 08:29:57;;;;;;;209.80;138.00;;;;;;;;;;5093106;28;20020;-67
2021/12/23 08:32:23;;;;;;;240.32;150.25;;;;;;;;;;5093343;28;20028;-67
2021/12/23 08:34:49;;;;;;;226.57;150.02;;;;;;;;;;5093081;28;20073;-67
2021/12/23 08:37:15;;;;;;;225.05;147.43;;;;;;;;;;5093070;28;20042;-67
2021/12/23 08:39:42;;;;;;;229.27;149.25;;;;;;;;;;5092772;28;20028;-67
2021/12/23 08:42:09;;;;;;;224.93;147.25;;;;;;;;;;5093060;28;20428;-68
2021/12/23 08:44:36;;;;;;;256.42;169.40;;;;;;;;;;5093112;28;20020;-67
2021/12/23 08:47:02;;;;;;;260.73;171.40;;;;;;;;;;5093028;28;20059;-67
2021/12/23 08:49:28;;;;;;;260.55;172.57;;;;;;;;;;5093039;28;20027;-68
2021/12/23 08:51:55;;;;;;;247.30;159.85;;;;;;;;;;5092786;28;20035;-67
2021/12/23 08:54:21;;;;;;;255.50;154.60;;;;;;;;;;5092557;28;20062;-65
2021/12/23 08:56:47;;;;;;;197.85;128.82;;;;;;;;;;5092828;28;20040;-66
2021/12/23 08:59:13;;;;;;;176.82;117.75;;;;;;;;;;5093121;28;20493;-67
2021/12/23 09:01:41;;;;;;;221.32;131.88;;;;;;;;;;5092862;28;20501;-66
2021/12/23 09:04:07;;;;;;;181.90;123.05;;;;;;;;;;5092588;28;20094;-65
2021/12/23 09:06:33;;;;;;;233.98;143.82;;;;;;;;;;5092459;28;20027;-68
2021/12/23 09:08:59;;;;;;;224.13;144.15;;;;;;;;;;5092718;28;20020;-66
2021/12/23 09:11:26;;;;;;;262.75;172.63;;;154.20;1536.00;;;;;;5092268;28;20024;-63
2021/12/23 09:13:52;;;;;;;262.58;177.85;;;154.10;1561.60;;;;;;5092398;28;20023;-67
2021/12/23 09:16:18;;;;;;;281.00;189.10;;;153.90;1561.60;;;;;;5092218;28;20043;-66
2021/12/23 09:18:44;;;;;;;254.38;181.38;;;153.90;1561.60;;;;;;5092704;28;20103;-67
2021/12/23 09:21:12;;;;;;;240.15;159.82;;;128.90;1612.80;;;;;;5092500;28;20123;-64
2021/12/23 09:23:39;;;;;;;236.90;158.00;;;153.80;1612.80;;;;;;5092416;28;20023;-66
2021/12/23 09:26:09;;;;;;;246.13;162.82;;;153.80;1587.20;;;;;;5091868;28;20044;-66
2021/12/23 09:29:05;;;;;;;264.73;170.40;;;153.80;1587.20;;;;;;5092506;28;20058;-66
2021/12/23 09:34:15;;;;;;;282.75;167.90;;;153.70;1689.60;;;;;;5092228;28;20047;-64
2021/12/23 09:36:41;;;;;;;235.35;150.52;;;153.80;1612.80;;;;;;5091997;28;20020;-67
2021/12/23 09:39:10;;;;;;;224.50;145.38;;;153.70;1612.80;;;;;;5092047;28;20462;-67
2021/12/23 09:41:41;;;;;;;333.42;216.10;;;;;;;;;;5092125;28;20470;-66
2021/12/23 09:44:08;;;;;;;242.18;152.98;;;;;;;;;;5092252;28;20016;-64
2021/12/23 09:46:35;;;;;;;201.15;136.95;;;;;;;;;;5092130;28;20036;-68
2021/12/23 09:49:01;;;;;;;257.15;170.02;;;;;;;;;;5091982;28;20390;-65
2021/12/23 09:51:29;;;;;;;267.73;169.00;;;;;;;;;;5091865;28;20466;-66
2021/12/23 09:53:59;;;;;;;274.85;181.50;;;;;;;;;;5091985;28;20462;-66
2021/12/23 09:56:26;;;;;;;291.58;185.45;;;;;;;;;;5091793;28;20077;-68
2021/12/23 09:58:55;;;;;;;304.13;198.98;;;;;;;;;;5092361;28;20024;-67
2021/12/23 10:01:22;;;;;;;293.83;199.52;;;;;;;;;;5073707;28;20028;-64
2021/12/23 10:03:48;;;;;;;301.77;202.13;;;;;;;;;;5092003;28;20027;-65
2021/12/23 10:06:14;;;;;;;322.70;219.80;;;;;;;;;;5092127;28;20114;-65
2021/12/23 10:08:41;;;;;;;363.00;241.38;;;;;;;;;;5091980;28;20386;-61
2021/12/23 10:11:23;;;;;;;350.80;241.38;;;;;;;;;;5092192;28;20020;-66
2021/12/23 10:38:41;;;;;;;177.70;116.25;;;154.40;1612.80;;;;;;5095201;28;20031;-62
2021/12/23 10:41:11;;;;;;;185.27;126.82;;;154.30;1612.80;;;;;;5094904;28;20509;-67
2021/12/23 10:43:43;;;;;;;196.52;135.32;;;154.40;1587.20;;;;;;5094900;28;20486;-66
2021/12/23 10:46:35;;;;;;;180.82;120.80;;;154.20;1612.80;;;;;;5094986;28;20024;-66
2021/12/23 10:52:09;;;;;;;236.85;145.68;;;154.40;1612.80;;;;;;5094796;28;20050;-66
2021/12/23 11:00:17;;;;;;;179.93;119.00;;;;;;;;;;5095575;28;20127;-61
2021/12/23 11:03:20;;;;;;;184.32;121.32;;;;;;;;;;5094949;28;20022;-65
2021/12/23 11:05:55;;;;;;;179.88;122.35;;;;;;;;;;4992669;28;20156;-66
2021/12/23 11:08:30;;;;;;;192.32;130.05;;;;;;;;;;4992785;28;20038;-65
2021/12/23 11:28:09;;;;;;;223.93;144.68;;;;;;;;;;4992280;28;20045;-66
2021/12/23 11:43:53;;;;;;;174.00;118.53;;;;;;;;;;5094137;28;20021;-67
2021/12/23 11:46:37;;;;;;;185.65;122.60;;;;;;;;;;5075777;28;20440;-66
2021/12/23 11:49:07;;;;;;;151.15;106.00;;;;;;;;;;5093896;28;20065;-67
2021/12/23 11:51:55;;;;;;;157.52;107.65;;;;;;;;;;5093917;28;20025;-67
2021/12/23 11:54:30;;;;;;;155.73;110.20;;;179.50;1664.00;;;;;;5093393;28;20043;-66
2021/12/23 11:57:02;;;;;;;157.43;109.63;;;;;;;;;;5094027;28;20046;-65
2021/12/23 11:59:28;;;;;;;174.38;114.22;;;;;;;;;;5093926;28;20016;-67
2021/12/23 12:01:55;;;;;;;165.48;111.28;;;;;;;;;;5093569;28;20063;-64
2021/12/23 12:04:27;;;;;;;174.30;113.57;;;;;;;;;;5093778;28;20080;-66
2021/12/23 12:06:55;;;;;;;169.20;112.38;;;;;;;;;;5093386;28;20020;-66
2021/12/23 12:09:28;;;;;;;181.98;121.38;;;;;;;;;;5093531;28;20024;-63
2021/12/23 12:11:59;;;;;;;157.82;105.82;;;179.20;1740.80;;;;;;5075252;28;20470;-65
2021/12/23 12:14:40;;;;;;;160.88;105.47;;;179.30;1715.20;;;;;;5093763;28;20028;-68
2021/12/23 12:17:32;;;;;;;157.40;104.72;;;;;;;;;;5093326;28;20024;-67
2021/12/23 12:20:25;;;;;;;178.27;125.38;;;154.50;1740.80;;;;;;5093149;28;20040;-67
2021/12/23 12:22:56;;;;;;;183.90;120.57;;;154.50;1740.80;;;;;;5093388;28;20017;-67
2021/12/23 12:25:25;;;;;;;165.98;96.45;;;154.50;1766.40;;;;;;5092894;28;20056;-67
2021/12/23 12:27:57;;;;;;;134.10;95.43;;;179.60;1715.20;;;;;;5075082;28;20506;-67
2021/12/23 12:30:36;;;;;;;127.80;86.60;;;;;;;;;;5093246;28;20059;-67
2021/12/23 12:33:03;;;;;;;151.80;94.20;;;;;;;;;;5092899;28;20355;-66
2021/12/23 12:35:29;;;;;;;121.82;81.15;;;;;;;;;;5074678;28;20482;-65
2021/12/23 12:38:10;;;;;;;144.05;89.45;;;;;;;;;;5092748;28;20040;-66
2021/12/23 12:40:59;;;;;;;150.43;90.38;;;;;;;;;;5073827;28;20028;-67
2021/12/23 12:46:10;;;;;;;114.65;81.03;;;;;;;;;;4991017;28;20400;-67
2021/12/23 12:49:08;;;;;;;115.53;77.75;;;;;;;;;;4991023;28;20129;-67
2021/12/23 12:51:39;;;;;;;140.23;93.57;;;;;;;;;;4990872;28;20030;-67
2021/12/23 12:54:10;;;;;;;135.32;89.35;;;;;;;;;;4991101;28;20063;-65
2021/12/23 12:56:46;;;;;;;125.82;79.05;;;;;;;;;;4991461;28;20034;-66
2021/12/23 12:59:13;;;;;;;131.05;83.07;;;;;;;;;;4990926;28;20073;-67
2021/12/23 13:01:43;;;;;;;133.88;84.95;;;;;;;;;;4990763;28;20126;-66
2021/12/23 13:04:22;;;;;;;134.45;88.72;;;;;;;;;;4990798;28;20034;-66
2021/12/23 13:06:48;;;;;;;153.20;90.63;;;;;;;;;;4990620;28;20655;-68
2021/12/23 13:09:16;;;;;;;149.57;98.30;;;;;;;;;;4990797;28;20042;-66
2021/12/23 13:11:43;;;;;;;160.90;99.88;;;;;;;;;;4974480;28;20038;-66
2021/12/23 13:14:13;;;;;;;170.68;111.45;;;;;;;;;;4990394;28;20111;-65
2021/12/23 13:16:53;;;;;;;179.52;111.97;;;;;;;;;;4990739;28;20070;-67
2021/12/23 13:19:20;;;;;;;142.45;89.93;;;;;;;;;;4996432;28;20099;-65
2021/12/23 13:21:51;;;;;;;161.57;94.00;;;;;;;;;;5092145;28;20036;-67
2021/12/23 13:24:18;;;;;;;146.18;98.45;;;;;;;;;;5092080;28;20468;-67
2021/12/23 13:26:45;;;;;;;159.90;102.10;;;;;;;;;;5092616;28;20035;-68
2021/12/23 13:29:12;;;;;;;137.20;92.65;;;;;;;;;;5092317;28;20048;-65
2021/12/23 13:31:39;;;;;;;156.52;101.90;;;;;;;;;;5091903;28;20106;-67
2021/12/23 13:34:06;;;;;;;159.23;97.03;;;;;;;;;;5091905;28;20019;-67
2021/12/23 13:36:32;;;;;;;154.55;106.90;;;;;;;;;;5091833;28;20012;-67
2021/12/23 13:39:06;;;;;;;182.48;120.20;;;;;;;;;;5092069;28;20459;-67
2021/12/23 13:41:33;;;;;;;181.13;111.85;;;;;;;;;;5091960;28;20451;-68
2021/12/23 13:44:00;;;;;;;183.65;116.00;;;;;;;;;;5091768;28;20462;-67
2021/12/23 13:46:28;;;;;;;195.98;126.78;;;;;;;;;;5091817;28;20093;-68
2021/12/23 13:48:56;;;;;;;192.35;127.55;;;;;;;;;;5092219;28;20028;-66
2021/12/23 13:51:24;;;;;;;188.95;121.72;;;;;;;;;;5093922;28;20390;-67
2021/12/23 13:54:00;;;;;;;178.32;122.80;;;;;;;;;;5096778;28;20442;-68
2021/12/23 13:56:30;;;;;;;181.80;129.45;;;;;;;;;;5096054;28;20036;-68
2021/12/23 13:59:06;;;;;;;199.43;133.77;;;;;;;;;;5095999;28;20015;-67
2021/12/23 14:01:32;;;;;;;202.57;136.73;;;;;;;;;;5095858;28;20043;-67
2021/12/23 14:03:58;;;;;;;205.90;137.95;;;;;;;;;;5096016;28;20024;-65
2021/12/23 14:06:24;;;;;;;272.65;139.05;;;;;;;;;;5095543;28;20028;-62
2021/12/23 14:08:51;;;;;;;204.82;134.98;;;;;;;;;;5095838;28;20036;-64
2021/12/23 14:11:17;;;;;;;199.27;137.40;;;;;;;;;;5077827;28;20039;-68
2021/12/23 14:13:43;;;;;;;217.43;142.30;;;;;;;;;;5095620;28;20063;-67
2021/12/23 14:16:09;;;;;;;200.85;136.43;;;;;;;;;;5095641;28;20024;-67
2021/12/23 14:24:03;;;;;;;241.38;161.63;;;;;;;;;;5095670;28;20104;-68
2021/12/23 14:26:30;;;;;;;255.93;164.30;;;;;;;;;;5095438;28;20032;-68
2021/12/23 14:29:06;;;;;;;223.05;152.73;;;;;;;;;;5095421;28;20020;-67
2021/12/23 14:31:33;;;;;;;233.63;158.52;;;;;;;;;;5094966;28;20050;-68
2021/12/23 14:34:03;;;;;;;331.27;239.57;;;;;;;;;;5095005;28;20020;-68
2021/12/23 14:36:31;;;;;;;311.40;235.07;;;;;;;;;;5094723;28;20016;-68
2021/12/23 14:39:00;;;;;;;276.80;200.77;;;;;;;;;;5094765;28;20023;-68
2021/12/23 14:41:27;;;;;;;269.75;185.25;;;;;;;;;;5094756;28;20059;-65
2021/12/23 14:44:01;;;;;;;281.15;199.88;;;;;;;;;;5076589;28;20073;-66
2021/12/23 14:46:30;;;;;;;286.35;206.52;;;;;;;;;;5095071;28;20034;-65
2021/12/23 14:51:29;;;;;;;291.25;203.88;;;;;;;;;;5094926;28;20070;-66
2021/12/23 14:54:09;;;;;;;298.17;208.48;;;;;;;;;;5095174;28;20428;-65